Terminal Aerodrome Forecast
Issued by NWS Sterling, VA

Current Version | Previous Version | Graphics & Text | Print | Product List | Glossary On
Versions: 1 2 3 4 5 6 7 8 9 10 11 12 13 14 15
659
FTUS41 KLWX 221129
TAFMRB
TAF
KMRB 221129Z 2212/2312 32017G30KT P6SM BKN045
     FM221400 33018G29KT P6SM SCT040
     FM221800 33017G27KT P6SM FEW250
     FM222300 33012KT P6SM SKC
     FM230100 33008KT P6SM SKC
     FM230500 34004KT P6SM FEW250=

USA.gov is the U.S. government's official web portal to all federal, state and local government web resources and services.